Time;durP1;ratioP1;P1;durP2;ratioP2;P2;SDS_P1;SDS_P2;PMS_P1;PMS_P2;Temp;Humidity;BMP_temperature;BMP_pressure;BME280_temperature;BME280_humidity;BME280_pressure;Samples;Min_cycle;Max_cycle;Signal;HPM_P1;HPM_P2
2021/09/18 00:02:06;;;;;;;8.40;3.67;;;;;;;22.31;61.77;101210.59;5049344;28;20062;-65
2021/09/18 00:04:32;;;;;;;9.48;4.22;;;;;;;22.32;61.67;101208.75;5031105;28;20520;-65
2021/09/18 00:06:57;;;;;;;8.82;4.22;;;;;;;22.33;61.74;101197.03;5074528;28;20396;-64
2021/09/18 00:09:23;;;;;;;9.35;3.80;;;;;;;22.31;61.58;101194.56;5056243;28;20411;-65
2021/09/18 00:11:48;;;;;;;8.23;3.75;;;;;;;22.31;61.84;101189.22;5040150;28;20441;-65
2021/09/18 00:14:15;;;;;;;10.90;3.90;;;;;;;22.32;61.83;101196.22;5072635;28;20032;-65
2021/09/18 00:16:41;;;;;;;8.35;3.92;;;;;;;22.30;61.50;101187.59;5051930;28;20029;-65
2021/09/18 00:19:06;;;;;;;11.88;3.53;;;;;;;22.31;61.42;101183.88;5051514;28;20311;-65
2021/09/18 00:21:32;;;;;;;10.05;4.28;;;;;;;22.32;61.69;101184.69;5065099;28;20043;-65
2021/09/18 00:23:58;;;;;;;9.30;3.90;;;;;;;22.31;61.63;101181.19;5078863;28;20029;-65
2021/09/18 00:26:23;;;;;;;8.65;3.97;;;;;;;22.31;61.76;101188.41;5056022;28;20075;-65
2021/09/18 00:28:49;;;;;;;8.38;3.55;;;;;;;22.32;61.60;101176.69;5057822;28;20055;-64
2021/09/18 00:31:14;;;;;;;9.25;3.92;;;;;;;22.30;61.71;101179.56;5078910;28;20037;-65
2021/09/18 00:33:39;;;;;;;8.18;3.60;;;;;;;22.31;61.60;101177.72;5055859;28;20033;-65
2021/09/18 00:36:05;;;;;;;7.78;3.15;;;;;;;22.30;61.65;101176.88;5066457;28;20040;-65
2021/09/18 00:38:30;;;;;;;7.32;3.15;;;;;;;22.31;61.57;101172.38;5057014;28;20086;-65
2021/09/18 00:40:56;;;;;;;8.48;3.65;;;;;;;22.30;61.61;101171.53;5057167;28;20028;-65
2021/09/18 00:43:22;;;;;;;8.60;3.83;;;;;;;22.30;61.53;101176.88;5061178;28;20395;-65
2021/09/18 00:45:48;;;;;;;7.18;3.33;;;;;;;22.31;61.67;101183.06;5056998;28;20032;-65
2021/09/18 00:48:13;;;;;;;6.85;3.50;;;;;;;22.31;61.40;101183.06;5079276;28;20039;-65
2021/09/18 00:50:39;;;;;;;7.80;3.22;;;;;;;22.30;62.02;101176.06;5081191;28;20032;-65
2021/09/18 00:53:05;;;;;;;6.80;3.20;;;;;;;22.30;61.66;101178.75;5054316;28;20040;-64
2021/09/18 00:55:31;;;;;;;8.63;3.53;;;;;;;22.30;61.56;101178.75;5034022;28;20040;-65
2021/09/18 00:57:57;;;;;;;7.55;3.03;;;;;;;22.30;61.63;101174.22;5067700;28;20037;-65
2021/09/18 01:00:22;;;;;;;6.53;2.92;;;;;;;22.30;61.37;101176.88;5071273;28;20035;-65
2021/09/18 01:02:48;;;;;;;5.50;2.80;;;;;;;22.31;61.18;101177.72;5054620;28;20074;-65
2021/09/18 01:05:13;;;;;;;7.43;3.03;;;;;;;22.30;61.45;101181.41;5037603;28;20071;-65
2021/09/18 01:07:39;;;;;;;8.27;3.00;;;;;;;22.30;61.01;101176.06;5071185;28;20047;-65
2021/09/18 01:10:07;;;;;;;7.38;3.13;;;;;;;22.30;61.45;101182.22;5069318;28;20090;-63
2021/09/18 01:12:32;;;;;;;5.70;2.90;;;;;;;22.30;61.33;101187.59;5070565;28;20476;-64
2021/09/18 01:14:58;;;;;;;7.65;2.55;;;;;;;22.29;61.25;101185.13;5052148;28;20037;-63
2021/09/18 01:17:23;;;;;;;7.07;3.03;;;;;;;22.30;61.37;101194.78;5070845;28;20450;-63
2021/09/18 01:19:49;;;;;;;6.50;2.72;;;;;;;22.30;61.34;101192.09;5070679;28;20094;-63
2021/09/18 01:22:19;;;;;;;7.15;2.78;;;;;;;22.29;61.32;101187.78;5070369;28;20715;-63
2021/09/18 01:24:44;;;;;;;5.57;2.47;;;;;;;22.29;61.51;101190.47;5070577;28;20036;-63
2021/09/18 01:27:10;;;;;;;6.30;3.00;;;;;;;22.30;61.15;101189.44;5035515;28;20040;-63
2021/09/18 01:29:36;;;;;;;5.70;2.92;;;;;;;22.29;61.33;101188.59;5070276;28;20112;-64
2021/09/18 01:32:02;;;;;;;5.13;2.63;;;;;;;22.29;61.07;101190.47;5069780;28;20035;-63
2021/09/18 01:34:27;;;;;;;7.68;3.03;;;;;;;22.29;61.11;101191.28;5070020;28;20020;-63
2021/09/18 01:36:53;;;;;;;7.47;2.75;;;;;;;22.30;61.34;101192.09;5034992;28;20054;-63
2021/09/18 01:39:21;;;;;;;7.35;2.50;;;;;;;22.29;61.10;101195.81;5024487;28;20455;-63
2021/09/18 01:41:47;;;;;;;6.05;2.67;;;;;;;22.29;61.19;101193.94;5052363;28;20127;-63
2021/09/18 01:44:16;;;;;;;6.60;2.70;;;;;;;22.30;61.19;101194.78;5052151;28;20056;-63
2021/09/18 01:46:43;;;;;;;6.28;2.58;;;;;;;22.29;61.07;101193.13;5069194;28;20039;-63
2021/09/18 01:49:18;;;;;;;7.85;2.67;;;;;;;22.26;61.09;101196.22;5069568;28;20100;-63
2021/09/18 01:51:55;;;;;;;5.93;2.22;;;;;;;22.28;61.32;101189.63;5051117;28;20035;-63
2021/09/18 01:54:20;;;;;;;6.47;2.58;;;;;;;22.29;61.40;101193.13;5069776;28;20044;-63
2021/09/18 01:56:46;;;;;;;4.65;2.15;;;;;;;22.28;61.44;101200.31;5069547;28;20036;-63
2021/09/18 01:59:11;;;;;;;5.20;2.42;;;;;;;22.28;61.22;101200.31;5051790;28;20044;-63
2021/09/18 02:01:37;;;;;;;5.18;2.20;;;;;;;22.28;61.14;101211.03;5024279;28;20407;-63
2021/09/18 02:04:03;;;;;;;5.80;2.50;;;;;;;22.29;61.20;101209.16;5069733;28;20024;-63
2021/09/18 02:06:28;;;;;;;7.40;2.30;;;;;;;22.28;61.04;101205.69;5069063;28;20064;-63
2021/09/18 02:08:53;;;;;;;5.68;2.65;;;;;;;22.28;61.19;101211.03;5052005;28;20040;-63
2021/09/18 02:11:19;;;;;;;6.57;2.60;;;;;;;22.28;60.91;101211.03;5024070;28;1310187;-63
2021/09/18 02:13:44;;;;;;;7.90;2.63;;;;;;;22.28;61.49;101215.53;5070079;28;20707;-63
2021/09/18 02:16:10;;;;;;;5.18;2.20;;;;;;;22.28;61.11;101215.53;5070145;28;20044;-63
2021/09/18 02:18:35;;;;;;;5.53;2.35;;;;;;;22.28;61.29;101215.53;5069993;28;20036;-63
2021/09/18 02:21:01;;;;;;;4.25;1.90;;;;;;;22.28;60.98;101212.88;5070620;28;20487;-63
2021/09/18 02:23:26;;;;;;;4.72;2.35;;;;;;;22.28;61.23;101212.88;5052105;28;20085;-63
2021/09/18 02:25:52;;;;;;;6.85;2.72;;;;;;;22.29;61.17;101211.84;5070489;28;20030;-63
2021/09/18 02:28:17;;;;;;;4.65;2.20;;;;;;;22.27;60.97;101208.56;5070681;28;20387;-63
2021/09/18 02:30:43;;;;;;;6.78;2.00;;;;;;;22.27;61.03;101208.56;5034897;28;20218;-64
2021/09/18 02:33:09;;;;;;;5.88;2.35;;;;;;;22.27;61.13;101213.91;5070727;28;20036;-63
2021/09/18 02:35:35;;;;;;;6.40;2.05;;;;;;;22.28;61.19;101207.53;5069362;28;20043;-63
2021/09/18 02:38:02;;;;;;;7.03;2.72;;;;;;;22.27;60.88;101212.06;5052529;28;20058;-63
2021/09/18 02:40:28;;;;;;;4.47;2.05;;;;;;;22.27;61.15;101211.22;5069233;28;20032;-63
2021/09/18 02:42:58;;;;;;;5.60;1.95;;;;;;;22.27;61.12;101205.88;5070399;28;20368;-63
2021/09/18 02:45:23;;;;;;;5.05;2.30;;;;;;;22.27;60.95;101203.22;5069500;28;20029;-63
2021/09/18 02:47:49;;;;;;;5.55;2.20;;;;;;;22.27;61.07;101195.19;5023761;28;20119;-63
2021/09/18 02:50:16;;;;;;;6.45;2.28;;;;;;;22.27;60.90;101197.88;5070133;28;20392;-63
2021/09/18 02:52:42;;;;;;;6.75;2.13;;;;;;;22.26;61.00;101197.03;5068910;28;20031;-63
2021/09/18 02:55:09;;;;;;;6.10;2.42;;;;;;;22.27;60.74;101197.88;5069992;28;20040;-63
2021/09/18 02:57:34;;;;;;;5.93;2.50;;;;;;;22.27;61.04;101185.31;5069776;28;20047;-63
2021/09/18 03:00:00;;;;;;;5.65;2.00;;;;;;;22.27;60.95;101195.19;5069008;28;20640;-63
2021/09/18 03:02:25;;;;;;;4.68;1.73;;;;;;;22.26;60.70;101185.53;5041884;28;20051;-63
2021/09/18 03:04:51;;;;;;;5.30;2.17;;;;;;;22.26;61.05;101194.38;5069477;28;20431;-63
2021/09/18 03:07:16;;;;;;;5.20;1.92;;;;;;;22.26;60.98;101188.22;5051410;28;20040;-63
2021/09/18 03:09:42;;;;;;;5.20;2.05;;;;;;;22.26;60.93;101180.19;5051423;28;20036;-63
2021/09/18 03:12:07;;;;;;;5.30;2.08;;;;;;;22.26;61.03;101190.88;5069529;28;20052;-63
2021/09/18 03:14:33;;;;;;;6.35;2.55;;;;;;;22.26;60.96;101188.22;5018207;28;20415;-63
2021/09/18 03:16:58;;;;;;;4.60;1.98;;;;;;;22.26;60.80;101183.69;5050986;28;20036;-63
2021/09/18 03:19:24;;;;;;;5.07;1.92;;;;;;;22.26;61.02;101183.69;5069312;28;20074;-63
2021/09/18 03:21:49;;;;;;;6.03;2.25;;;;;;;22.27;61.00;101187.19;5050404;28;20032;-63
2021/09/18 03:24:15;;;;;;;5.93;2.38;;;;;;;22.25;61.08;101184.72;5051665;28;20039;-63
2021/09/18 03:26:43;;;;;;;5.53;2.30;;;;;;;22.25;60.81;101190.06;5050890;28;20040;-63
2021/09/18 03:29:09;;;;;;;5.30;2.40;;;;;;;22.25;60.74;101197.22;5035555;28;20034;-63
2021/09/18 03:31:35;;;;;;;6.45;2.25;;;;;;;22.25;61.20;101194.53;5061906;28;20068;-63
2021/09/18 03:34:00;;;;;;;5.78;2.40;;;;;;;22.25;60.74;101197.22;5069266;28;20068;-63
2021/09/18 03:36:26;;;;;;;5.53;2.13;;;;;;;22.26;60.60;101201.56;5068835;28;20498;-63
2021/09/18 03:38:51;;;;;;;5.18;2.30;;;;;;;22.26;60.77;101205.06;5068782;28;20464;-63
2021/09/18 03:41:17;;;;;;;5.20;2.15;;;;;;;22.26;60.66;101201.56;5068731;28;20036;-63
2021/09/18 03:43:42;;;;;;;4.00;2.30;;;;;;;22.25;60.88;101199.91;5050288;28;20049;-63
2021/09/18 03:46:08;;;;;;;5.38;2.28;;;;;;;22.24;60.93;101204.41;5033896;28;20040;-63
2021/09/18 03:48:33;;;;;;;3.70;2.10;;;;;;;22.25;60.62;101211.44;5067976;28;20024;-63
2021/09/18 03:50:59;;;;;;;5.85;2.20;;;;;;;22.24;60.99;101207.09;5068666;28;20040;-63
2021/09/18 03:53:24;;;;;;;5.75;2.60;;;;;;;22.24;60.82;101204.41;5068898;28;20033;-63
2021/09/18 03:55:50;;;;;;;5.20;2.50;;;;;;;22.24;61.08;101203.59;5017447;28;20540;-63
2021/09/18 03:58:15;;;;;;;5.88;2.60;;;;;;;22.24;60.79;101203.59;5050476;28;20047;-63
2021/09/18 04:00:41;;;;;;;4.60;2.42;;;;;;;22.25;60.77;101206.09;5027281;28;20033;-63
2021/09/18 04:03:07;;;;;;;3.83;2.10;;;;;;;22.25;61.00;101202.56;5025476;28;20090;-63
2021/09/18 04:05:32;;;;;;;5.35;2.22;;;;;;;22.24;60.76;101201.75;5016411;28;20117;-63
2021/09/18 04:07:58;;;;;;;4.72;2.15;;;;;;;22.24;61.13;101198.25;5068577;28;20028;-63
2021/09/18 04:10:23;;;;;;;6.57;2.75;;;;;;;22.24;60.83;101201.75;5049378;28;20552;-63
2021/09/18 04:12:49;;;;;;;4.18;2.05;;;;;;;22.24;60.71;101200.91;5050201;28;20029;-63
2021/09/18 04:15:14;;;;;;;4.97;2.30;;;;;;;22.23;60.60;101200.09;5067826;28;20039;-63
2021/09/18 04:17:40;;;;;;;5.13;2.13;;;;;;;22.23;60.61;101204.63;5049339;28;20466;-63
2021/09/18 04:20:06;;;;;;;5.57;2.38;;;;;;;22.24;60.93;101195.56;5060518;28;20032;-63
2021/09/18 04:22:32;;;;;;;6.28;2.90;;;;;;;22.24;60.90;101195.56;5049971;28;20059;-63
2021/09/18 04:24:57;;;;;;;4.30;2.30;;;;;;;22.23;60.85;101194.75;5050735;28;20495;-63
2021/09/18 04:27:23;;;;;;;6.03;2.80;;;;;;;22.24;60.58;101200.91;5030731;28;20032;-63
2021/09/18 04:29:48;;;;;;;4.78;2.50;;;;;;;22.23;60.87;101201.94;5049757;28;20036;-63
2021/09/18 04:32:13;;;;;;;5.57;2.50;;;;;;;22.23;60.79;101193.94;5068413;28;20045;-63
2021/09/18 04:34:39;;;;;;;5.05;2.50;;;;;;;22.23;60.62;101204.63;5050134;28;20111;-63
2021/09/18 04:37:04;;;;;;;5.13;2.60;;;;;;;22.22;60.96;101203.81;5049984;28;20070;-63
2021/09/18 04:39:30;;;;;;;5.57;2.70;;;;;;;22.22;60.77;101209.16;5050122;28;20037;-63
2021/09/18 04:41:55;;;;;;;4.65;2.25;;;;;;;22.22;60.79;101214.50;5050080;28;20037;-63
2021/09/18 04:44:21;;;;;;;6.53;2.15;;;;;;;22.22;60.60;101208.31;5068242;28;20472;-63
2021/09/18 04:46:46;;;;;;;4.30;2.33;;;;;;;22.22;60.50;101213.66;5067687;28;20085;-63
2021/09/18 04:49:12;;;;;;;5.65;2.60;;;;;;;22.22;60.64;101217.16;5050220;28;20365;-63
2021/09/18 04:51:37;;;;;;;4.80;2.35;;;;;;;22.23;61.01;101215.31;5033016;28;20041;-63
2021/09/18 04:54:03;;;;;;;5.70;3.03;;;;;;;22.23;60.67;101216.13;5068071;28;20556;-63
2021/09/18 04:56:29;;;;;;;6.07;2.42;;;;;;;22.22;60.93;101219.84;5050323;28;20040;-63
2021/09/18 04:58:55;;;;;;;4.25;2.63;;;;;;;22.22;60.70;101225.19;5033590;28;20044;-63
2021/09/18 05:01:20;;;;;;;5.00;2.65;;;;;;;22.22;60.57;101216.34;5046277;28;20037;-63
2021/09/18 05:03:46;;;;;;;6.10;2.55;;;;;;;22.20;60.79;101224.56;5066950;28;20386;-63
2021/09/18 05:06:11;;;;;;;5.07;2.35;;;;;;;22.21;60.75;101225.38;5049993;28;20040;-63
2021/09/18 05:08:37;;;;;;;6.13;2.60;;;;;;;22.20;60.54;101221.91;5049547;28;20044;-63
2021/09/18 05:11:02;;;;;;;4.90;2.67;;;;;;;22.21;60.51;101222.72;5035087;28;20049;-63
2021/09/18 05:13:28;;;;;;;5.32;2.45;;;;;;;22.20;60.56;101219.22;5072152;28;20063;-63
2021/09/18 05:15:53;;;;;;;4.35;2.55;;;;;;;22.21;60.86;101220.88;5036434;28;20036;-63
2021/09/18 05:18:19;;;;;;;4.07;2.50;;;;;;;22.20;60.65;101219.22;5072008;28;20040;-63
2021/09/18 05:20:45;;;;;;;4.55;2.50;;;;;;;22.20;60.59;101219.22;5036379;28;20127;-63
2021/09/18 05:23:10;;;;;;;5.47;2.75;;;;;;;22.21;60.48;101222.72;5053684;28;20739;-63
2021/09/18 05:25:35;;;;;;;4.90;2.65;;;;;;;22.20;60.68;101224.56;5036641;28;20041;-63
2021/09/18 05:28:01;;;;;;;6.13;2.80;;;;;;;22.21;60.79;101228.06;5071446;28;20101;-63
2021/09/18 05:30:27;;;;;;;4.70;2.92;;;;;;;22.21;60.64;101228.88;5052790;28;20044;-63
2021/09/18 05:32:52;;;;;;;7.35;2.85;;;;;;;22.21;60.62;101233.41;5071198;28;20733;-63
2021/09/18 05:35:18;;;;;;;4.95;2.40;;;;;;;22.20;60.72;101237.94;5071410;28;20133;-63
2021/09/18 05:37:43;;;;;;;4.78;2.78;;;;;;;22.20;60.65;101235.25;5070232;28;20108;-63
2021/09/18 05:40:09;;;;;;;4.63;2.47;;;;;;;22.20;60.75;101237.09;5053156;28;20054;-63
2021/09/18 05:42:36;;;;;;;4.10;2.50;;;;;;;22.20;60.73;101240.59;5053396;28;20048;-63
2021/09/18 05:45:04;;;;;;;5.30;3.13;;;;;;;22.20;60.78;101245.94;5052354;28;20032;-63
2021/09/18 05:47:29;;;;;;;4.85;2.70;;;;;;;22.20;60.67;101242.44;5053135;28;20098;-63
2021/09/18 05:49:55;;;;;;;3.90;2.53;;;;;;;22.20;60.64;101250.47;5035935;28;20037;-63
2021/09/18 05:52:20;;;;;;;5.32;2.60;;;;;;;22.21;60.83;101254.78;5070851;28;20040;-63
2021/09/18 05:54:45;;;;;;;5.05;2.70;;;;;;;22.20;60.68;101263.81;5035934;28;20056;-63
2021/09/18 05:57:11;;;;;;;5.22;3.05;;;;;;;22.20;60.80;101266.50;5053110;28;20039;-63
2021/09/18 05:59:36;;;;;;;6.25;2.95;;;;;;;22.19;60.50;101260.34;5071504;28;20044;-63
2021/09/18 06:02:02;;;;;;;4.32;2.53;;;;;;;22.20;60.73;101261.16;5034908;28;20048;-63
2021/09/18 06:04:27;;;;;;;5.28;2.65;;;;;;;22.20;60.38;101255.81;5053027;28;20033;-63
2021/09/18 06:06:53;;;;;;;4.25;2.75;;;;;;;22.20;60.74;101261.16;5052116;28;20075;-63
2021/09/18 06:09:18;;;;;;;4.60;2.80;;;;;;;22.19;60.76;101264.84;5071014;28;20391;-63
2021/09/18 06:11:44;;;;;;;5.35;2.95;;;;;;;22.19;60.59;101255.00;5070027;28;20482;-64
2021/09/18 06:14:09;;;;;;;4.80;2.78;;;;;;;22.19;60.60;101251.50;5070659;28;20043;-63
2021/09/18 06:16:35;;;;;;;4.80;2.90;;;;;;;22.19;60.74;101264.84;5063950;28;20523;-63
2021/09/18 06:19:00;;;;;;;4.40;2.70;;;;;;;22.18;60.58;101250.66;5052002;28;20032;-63
2021/09/18 06:21:26;;;;;;;6.10;3.05;;;;;;;22.18;60.58;101263.22;5061703;28;20032;-63
2021/09/18 06:23:51;;;;;;;5.25;2.80;;;;;;;22.19;60.43;101264.84;5069544;28;20082;-63
2021/09/18 06:26:16;;;;;;;5.38;3.05;;;;;;;22.18;60.66;101269.38;5070559;28;20060;-63
2021/09/18 06:28:43;;;;;;;5.10;2.70;;;;;;;22.18;60.46;101257.88;5044271;28;20079;-64
2021/09/18 06:31:09;;;;;;;5.13;2.67;;;;;;;22.18;60.59;101269.38;5070086;28;20036;-63
2021/09/18 06:33:34;;;;;;;4.88;3.08;;;;;;;22.18;60.74;101273.91;5063874;28;20037;-63
2021/09/18 06:36:00;;;;;;;4.38;2.72;;;;;;;22.18;60.68;101268.56;5069814;28;20131;-63
2021/09/18 06:38:26;;;;;;;4.07;2.45;;;;;;;22.17;60.65;101278.41;5070157;28;20059;-63
2021/09/18 06:40:58;;;;;;;6.65;2.85;;;;;;;22.15;60.61;101272.47;5065210;28;20089;-63
2021/09/18 06:43:23;;;;;;;5.68;2.78;;;;;;;22.18;60.82;101276.56;5061487;28;20032;-63
2021/09/18 06:45:50;;;;;;;5.13;2.80;;;;;;;22.18;61.08;101276.56;5069382;28;20035;-64
2021/09/18 06:48:16;;;;;;;7.35;3.15;;;;;;;22.17;60.93;101280.28;5074128;28;20032;-64
2021/09/18 06:50:41;;;;;;;5.50;3.25;;;;;;;22.16;61.08;101286.66;5061095;28;20067;-64
2021/09/18 06:53:07;;;;;;;7.03;3.83;;;;;;;22.15;60.48;101285.00;5066274;28;20420;-64
2021/09/18 06:55:34;;;;;;;7.13;3.33;;;;;;;22.14;60.61;101281.50;5062948;28;20397;-64
2021/09/18 06:58:00;;;;;;;10.05;3.45;;;;;;;22.13;61.04;101287.88;5065569;28;20031;-66
2021/09/18 07:00:27;;;;;;;7.70;3.53;;;;;;;22.12;61.27;101286.22;5057031;28;20060;-65
2021/09/18 07:02:52;;;;;;;6.45;3.17;;;;;;;22.14;61.18;101294.03;5064715;28;20129;-64
2021/09/18 07:05:18;;;;;;;7.82;3.20;;;;;;;22.14;61.62;101288.69;5065130;28;20451;-63
2021/09/18 07:07:45;;;;;;;9.45;3.53;;;;;;;22.13;61.61;101290.56;5064521;28;20036;-64
2021/09/18 07:10:11;;;;;;;7.68;3.63;;;;;;;22.14;61.24;101291.38;5064692;28;20078;-64
2021/09/18 07:12:37;;;;;;;6.97;3.70;;;;;;;22.14;61.27;101299.38;5065668;28;20036;-63
2021/09/18 07:15:03;;;;;;;6.97;3.83;;;;;;;22.14;61.77;101291.38;5082981;28;20046;-63
2021/09/18 07:17:28;;;;;;;7.53;3.92;;;;;;;22.14;61.55;101289.53;5066401;28;20135;-63
2021/09/18 07:19:55;;;;;;;6.38;3.47;;;;;;;22.15;61.50;101288.50;5066724;28;20136;-63
2021/09/18 07:22:21;;;;;;;8.45;3.60;;;;;;;22.15;61.65;101295.69;5079517;28;20086;-63
2021/09/18 07:24:46;;;;;;;6.47;3.40;;;;;;;22.15;61.48;101295.69;5064033;28;20497;-63
2021/09/18 07:27:11;;;;;;;5.25;3.20;;;;;;;22.15;61.70;101291.16;5062624;28;20020;-63
2021/09/18 07:29:37;;;;;;;7.47;3.42;;;;;;;22.16;61.55;101292.81;5078240;28;20444;-63
2021/09/18 07:32:03;;;;;;;7.55;3.90;;;;;;;22.16;61.51;101292.00;5035293;28;20122;-63
2021/09/18 07:34:28;;;;;;;8.63;4.22;;;;;;;22.16;61.59;101286.66;5030803;28;20036;-64
2021/09/18 07:36:54;;;;;;;6.43;3.78;;;;;;;22.15;61.44;101291.16;5065553;28;20356;-64
2021/09/18 07:39:20;;;;;;;9.60;4.30;;;;;;;22.16;61.55;101300.00;5065103;28;20519;-64
2021/09/18 07:41:46;;;;;;;11.20;4.25;;;;;;;22.16;61.55;101297.34;5065512;28;20601;-65
2021/09/18 07:44:11;;;;;;;10.95;3.70;;;;;;;22.16;61.69;101292.81;5058911;28;20119;-64
2021/09/18 07:46:36;;;;;;;10.32;3.70;;;;;;;22.15;61.87;101296.50;5073055;28;20107;-63
2021/09/18 07:49:02;;;;;;;10.85;3.97;;;;;;;22.15;61.55;101291.16;5083045;28;20028;-64
2021/09/18 07:51:28;;;;;;;9.13;4.15;;;;;;;22.16;61.39;101287.47;5085499;28;20059;-65
2021/09/18 07:53:53;;;;;;;8.68;4.05;;;;;;;22.15;61.36;101293.84;5083923;28;20027;-62
2021/09/18 07:56:19;;;;;;;8.45;3.83;;;;;;;22.15;61.39;101290.34;5060771;28;20654;-63
2021/09/18 07:58:45;;;;;;;14.05;4.35;;;;;;;22.14;61.17;101288.69;5082382;28;20031;-61
2021/09/18 08:01:11;;;;;;;9.55;3.67;;;;;;;22.14;61.39;101294.03;5082123;28;20040;-62
2021/09/18 08:03:37;;;;;;;8.77;3.38;;;;;;;22.12;60.97;101291.56;5082026;28;20077;-62
2021/09/18 08:06:04;;;;;;;6.93;3.45;;;;;;;22.13;60.92;101295.06;5063757;28;20028;-63
2021/09/18 08:08:29;;;;;;;6.25;3.63;;;;;;;22.11;60.97;101292.59;5081244;28;20111;-62
2021/09/18 08:10:55;;;;;;;9.30;4.03;;;;;;;22.12;61.17;101294.25;5080618;28;20138;-62
2021/09/18 08:13:20;;;;;;;7.78;3.58;;;;;;;22.10;61.06;101291.78;5085113;28;20041;-62
2021/09/18 08:15:46;;;;;;;8.20;3.60;;;;;;;22.11;61.10;101295.28;5082579;28;20036;-62
2021/09/18 08:18:11;;;;;;;9.10;3.60;;;;;;;22.10;60.82;101294.44;5085024;28;20055;-62
2021/09/18 08:20:37;;;;;;;8.23;3.30;;;;;;;22.09;60.92;101294.63;5062312;28;20081;-61
2021/09/18 08:23:03;;;;;;;8.27;3.20;;;;;;;22.08;60.85;101293.81;5082224;28;20036;-63
2021/09/18 08:25:28;;;;;;;9.52;3.80;;;;;;;22.10;60.97;101296.31;5062979;28;20040;-62
2021/09/18 08:27:54;;;;;;;7.53;3.35;;;;;;;22.09;60.89;101290.13;5080904;28;20143;-63
2021/09/18 08:30:20;;;;;;;6.60;3.00;;;;;;;22.11;61.10;101293.44;5081176;28;20062;-63
2021/09/18 08:32:46;;;;;;;10.32;3.75;;;;;;;22.12;61.54;101294.25;5078313;28;20123;-64
2021/09/18 08:35:12;;;;;;;8.68;3.50;;;;;;;22.13;61.43;101293.22;5066353;28;20059;-63
2021/09/18 08:37:38;;;;;;;7.50;3.88;;;;;;;22.15;61.62;101287.66;5075356;28;20032;-62
2021/09/18 08:40:05;;;;;;;7.45;2.90;;;;;;;22.16;61.35;101284.78;5065504;28;20111;-62
2021/09/18 08:42:31;;;;;;;5.70;2.83;;;;;;;22.16;61.36;101281.31;5081489;28;20035;-62
2021/09/18 08:44:56;;;;;;;5.05;3.38;;;;;;;22.17;61.47;101286.44;5077722;28;20040;-62
2021/09/18 08:47:23;;;;;;;14.35;3.10;;;;;;;22.18;61.30;101277.41;5086424;28;20032;-63
2021/09/18 08:49:49;;;;;;;4.93;2.97;;;;;;;22.18;61.22;101284.59;5085271;28;20457;-64
2021/09/18 08:52:15;;;;;;;6.38;3.25;;;;;;;22.18;61.12;101273.91;5076388;28;20045;-62
2021/09/18 08:54:41;;;;;;;5.07;2.78;;;;;;;22.18;60.81;101272.06;5051150;28;20058;-63
2021/09/18 08:57:10;;;;;;;6.15;3.00;;;;;;;22.18;60.80;101269.38;5050023;28;20032;-62
2021/09/18 08:59:37;;;;;;;5.35;3.20;;;;;;;22.18;60.22;101280.06;5038132;28;20072;-62
2021/09/18 09:02:15;;;;;;;6.45;2.92;;;;;;;22.14;59.70;101273.50;5057399;28;20025;-63
2021/09/18 09:04:41;;;;;;;6.20;2.88;;;;;;;22.16;59.69;101281.31;5069234;28;20031;-62
2021/09/18 09:07:09;;;;;;;8.20;3.20;;;;;;;22.17;59.69;101272.25;5064516;28;20151;-63
2021/09/18 09:09:53;;;;;;;8.95;3.05;;;;;;;22.11;59.06;101279.25;5080737;28;20437;-62
2021/09/18 09:12:33;;;;;;;8.57;3.00;;;;;;;22.10;59.44;101283.75;5072048;28;20048;-62
2021/09/18 09:15:01;;;;;;;6.63;3.25;;;;;;;22.15;59.61;101279.66;5082030;28;20023;-62
2021/09/18 09:17:29;;;;;;;6.15;2.95;;;;;;;22.14;59.32;101278.84;5079031;28;20037;-62
2021/09/18 09:19:56;;;;;;;7.95;3.13;;;;;;;22.14;59.33;101283.34;5061994;28;20032;-62
2021/09/18 09:22:43;;;;;;;8.32;2.67;;;;;;;22.09;59.03;101263.41;5068209;28;20113;-62
2021/09/18 09:25:31;;;;;;;6.03;2.63;;;;;;;22.10;59.14;101274.94;5080674;28;20036;-62
2021/09/18 09:27:58;;;;;;;6.20;2.75;;;;;;;22.14;58.75;101278.84;5077852;28;20029;-62
2021/09/18 09:30:28;;;;;;;4.60;2.40;;;;;;;22.13;58.83;101276.38;5070496;28;20135;-62
2021/09/18 09:32:53;;;;;;;5.28;2.45;;;;;;;22.15;58.57;101271.63;5071639;28;20036;-62
2021/09/18 09:35:19;;;;;;;5.68;2.65;;;;;;;22.13;58.58;101282.53;5074474;28;20040;-62
2021/09/18 09:37:53;;;;;;;6.60;2.80;;;;;;;22.11;58.44;101280.06;5052251;28;20566;-63
2021/09/18 09:40:34;;;;;;;5.43;2.70;;;;;;;22.10;58.34;101277.59;5037573;28;20131;-62
2021/09/18 09:43:00;;;;;;;6.18;2.72;;;;;;;22.12;58.25;101278.22;5076642;28;20103;-62
2021/09/18 09:45:26;;;;;;;7.82;2.65;;;;;;;22.11;58.60;101287.25;5078401;28;20447;-63
2021/09/18 09:48:10;;;;;;;9.52;2.63;;;;;;;22.10;58.63;101294.44;5071189;28;20036;-63
2021/09/18 09:50:38;;;;;;;6.53;2.40;;;;;;;22.11;58.54;101287.25;5066694;28;20067;-63
2021/09/18 09:53:05;;;;;;;6.10;3.10;;;;;;;22.11;58.36;101280.06;5052634;28;20128;-62
2021/09/18 09:55:38;;;;;;;5.32;2.63;;;;;;;22.08;58.04;101285.78;5075995;28;20494;-62
2021/09/18 09:58:07;;;;;;;7.50;2.80;;;;;;;22.10;58.46;101283.75;5060485;28;20028;-62
2021/09/18 10:00:47;;;;;;;5.20;2.58;;;;;;;22.07;58.54;101281.47;5069981;28;20055;-62
2021/09/18 10:03:13;;;;;;;7.38;2.67;;;;;;;22.10;58.50;101286.44;5070329;28;20377;-62
2021/09/18 10:05:39;;;;;;;6.57;2.50;;;;;;;22.11;58.58;101276.56;5021317;28;20025;-62
2021/09/18 10:08:05;;;;;;;5.50;2.60;;;;;;;22.11;58.68;101281.91;5062837;28;20075;-62
2021/09/18 10:10:33;;;;;;;6.90;3.15;;;;;;;22.10;58.24;101275.75;5047250;28;20435;-62
2021/09/18 10:12:58;;;;;;;3.60;2.60;;;;;;;22.11;58.52;101273.91;5050591;28;20021;-62
2021/09/18 10:15:27;;;;;;;6.35;2.40;;;;;;;22.14;58.36;101280.69;5031939;28;20037;-62
2021/09/18 10:17:58;;;;;;;7.10;2.78;;;;;;;22.14;58.46;101272.66;5050910;28;20439;-62
2021/09/18 10:25:40;;;;;;;5.38;2.47;;;;;;;22.14;58.47;101261.97;5034971;28;20059;-62
2021/09/18 10:28:14;;;;;;;7.15;2.70;;;;;;;22.12;58.61;101270.19;5050268;28;20477;-62
2021/09/18 10:31:03;;;;;;;6.75;2.78;;;;;;;22.13;58.16;101268.34;5049716;28;20036;-62
2021/09/18 10:33:30;;;;;;;5.28;2.67;;;;;;;22.13;58.37;101266.50;5039216;28;20037;-62
2021/09/18 10:36:17;;;;;;;5.65;2.25;;;;;;;22.10;58.66;101261.56;5018779;28;20710;-64
2021/09/18 10:38:44;;;;;;;4.00;2.22;;;;;;;22.15;58.31;101261.78;5049767;28;20514;-62
2021/09/18 10:41:12;;;;;;;5.05;2.40;;;;;;;22.15;58.25;101252.94;5049929;28;20128;-62
2021/09/18 10:43:44;;;;;;;3.78;2.10;;;;;;;22.14;58.42;101253.97;5050241;28;20037;-62
2021/09/18 10:46:37;;;;;;;5.82;2.42;;;;;;;22.09;58.53;101257.22;5049919;28;20033;-62
2021/09/18 10:49:03;;;;;;;5.03;2.35;;;;;;;22.13;57.87;101263.81;5039543;28;20029;-62
2021/09/18 10:51:37;;;;;;;5.00;1.80;;;;;;;22.10;58.07;101261.56;5031747;28;20040;-62
2021/09/18 10:54:06;;;;;;;5.68;2.28;;;;;;;22.11;58.06;101263.22;5049934;28;20138;-62
2021/09/18 10:56:54;;;;;;;3.60;1.70;;;;;;;22.06;57.74;101269.13;5050021;28;20033;-62
2021/09/18 10:59:43;;;;;;;4.28;2.15;;;;;;;22.05;57.45;101264.81;5038830;28;20068;-62
2021/09/18 11:02:27;;;;;;;4.30;2.05;;;;;;;;;;5037313;28;20047;-62
2021/09/18 11:04:53;;;;;;;5.15;1.88;;;;;;;22.06;57.41;101258.44;5049660;28;20037;-64
2021/09/18 11:07:39;;;;;;;3.78;1.75;;;;;;;22.02;57.52;101259.84;5049092;28;20476;-62
2021/09/18 11:10:21;;;;;;;6.05;2.10;;;;;;;22.03;57.59;101256.16;5050488;28;20032;-62
2021/09/18 11:13:09;;;;;;;5.57;1.90;;;;;;;22.01;57.30;101260.06;5089630;28;20036;-62
2021/09/18 11:15:40;;;;;;;4.05;1.67;;;;;;;22.00;57.17;101259.25;5075002;28;20066;-62
2021/09/18 11:18:08;;;;;;;7.80;1.90;;;;;;;21.99;57.30;101254.09;5071832;28;20037;-62
2021/09/18 11:20:35;;;;;;;5.57;1.83;;;;;;;21.95;56.89;101251.03;5065385;28;20028;-64
2021/09/18 11:23:01;;;;;;;6.32;1.70;;;;;;;21.93;56.81;101253.03;5087403;28;20066;-62
2021/09/18 11:25:43;;;;;;;5.30;1.80;;;;;;;21.92;57.17;101248.72;5053457;28;20111;-62
2021/09/18 11:28:11;;;;;;;4.65;1.80;;;;;;;21.91;57.31;101244.41;5050811;28;20059;-62
2021/09/18 11:30:45;;;;;;;4.50;1.42;;;;;;;21.91;57.27;101244.41;5068156;28;20035;-62